Time;durP1;ratioP1;P1;durP2;ratioP2;P2;SDS_P1;SDS_P2;PMS_P1;PMS_P2;Temp;Humidity;BMP_temperature;BMP_pressure;BME280_temperature;BME280_humidity;BME280_pressure;Samples;Min_cycle;Max_cycle;Signal;HPM_P1;HPM_P2
2023/10/09 00:01:04;;;;;;;;;24.00;21.33;;;;;20.23;61.68;101862.25;5097268;27;45525;-68
2023/10/09 00:03:30;;;;;;;;;29.00;25.00;;;;;20.23;61.54;101867.63;5110735;27;45548;-69
2023/10/09 00:05:55;;;;;;;;;25.00;24.00;;;;;20.19;61.95;101863.59;5107370;27;45746;-69
2023/10/09 00:08:21;;;;;;;;;28.33;24.33;;;;;20.17;61.80;101871.03;5097255;27;45535;-70
2023/10/09 00:10:57;;;;;;;;;25.67;23.33;;;;;20.14;61.92;101857.91;5112446;27;45260;-69
2023/10/09 00:13:32;;;;;;;;;26.67;24.67;;;;;20.12;61.88;101861.81;5097916;27;46142;-69
2023/10/09 00:16:08;;;;;;;;;25.33;22.67;;;;;20.02;62.07;101838.59;5105359;27;46065;-69
2023/10/09 00:18:34;;;;;;;;;23.67;21.00;;;;;20.14;61.89;101862.47;5103818;27;45643;-68
2023/10/09 00:21:12;;;;;;;;;28.67;24.00;;;;;20.11;61.99;101852.03;5106590;27;45398;-69
2023/10/09 00:23:38;;;;;;;;;22.67;18.33;;;;;20.06;61.78;101847.16;5106021;27;45640;-68
2023/10/09 00:26:16;;;;;;;;;25.67;23.33;;;;;20.10;61.97;101861.97;5117146;27;45755;-69
2023/10/09 00:28:43;;;;;;;;;25.00;21.00;;;;;19.80;62.05;101811.56;5120052;27;45392;-68
2023/10/09 00:31:14;;;;;;;;;26.67;21.33;;;;;19.97;61.86;101848.22;5103387;27;45311;-68
2023/10/09 00:33:43;;;;;;;;;20.67;18.00;;;;;20.06;61.92;101860.66;5119954;27;45477;-68
2023/10/09 00:36:14;;;;;;;;;25.67;22.33;;;;;20.02;62.21;101853.91;5110253;27;47471;-69
2023/10/09 00:38:49;;;;;;;;;26.00;24.67;;;;;20.08;62.18;101861.31;5108108;27;45505;-68
2023/10/09 00:41:20;;;;;;;;;18.00;16.00;;;;;20.01;62.22;101844.13;5108770;27;45501;-69
2023/10/09 00:43:49;;;;;;;;;24.00;24.00;;;;;20.03;62.37;101855.63;5100432;27;45298;-68
2023/10/09 00:49:01;;;;;;;;;26.33;25.33;;;;;19.94;62.68;101845.88;5108050;27;45236;-67
2023/10/09 00:51:27;;;;;;;;;26.33;22.67;;;;;19.98;62.36;101847.19;5100090;27;45531;-69
2023/10/09 00:53:57;;;;;;;;;29.67;22.33;;;;;19.96;62.38;101843.84;5100372;27;45315;-69
2023/10/09 00:59:06;;;;;;;;;22.67;22.00;;;;;19.96;62.61;101841.16;5107935;27;45515;-69
2023/10/09 01:01:36;;;;;;;;;21.00;21.00;;;;;19.68;62.61;101793.09;5099801;27;45336;-70
2023/10/09 01:04:11;;;;;;;;;28.33;23.00;;;;;19.91;62.66;101832.75;5107658;27;45441;-68
2023/10/09 01:06:43;;;;;;;;;24.33;22.67;;;;;19.46;62.76;101756.13;5100351;27;47039;-69
2023/10/09 01:09:14;;;;;;;;;20.67;19.33;;;;;19.88;62.86;101831.25;5099950;27;45446;-69
2023/10/09 01:12:02;;;;;;;;;1.00;0.00;;;;;19.85;62.65;101825.38;5112110;27;45364;-69
2023/10/09 01:14:28;;;;;;;;;18.67;18.67;;;;;19.60;62.73;101781.50;5103094;27;45530;-67
2023/10/09 01:16:54;;;;;;;;;21.67;19.00;;;;;19.81;62.81;101810.53;5117781;27;46549;-69
2023/10/09 01:19:30;;;;;;;;;20.67;19.67;;;;;19.80;62.77;101806.16;5109543;27;45831;-69
2023/10/09 01:22:04;;;;;;;;;18.33;18.33;;;;;19.66;62.93;101789.75;5106057;27;45496;-68
2023/10/09 01:24:31;;;;;;;;;14.00;12.67;;;;;19.75;62.74;101804.00;5100250;27;45535;-69
2023/10/09 01:26:59;;;;;;;;;14.00;14.00;;;;;19.73;62.36;101811.44;5107483;27;46628;-68
2023/10/09 01:29:27;;;;;;;;;16.00;14.67;;;;;19.69;62.41;101800.16;5107609;27;45264;-69
2023/10/09 01:31:54;;;;;;;;;16.00;14.67;;;;;19.69;62.46;101797.47;5112913;27;45375;-67
2023/10/09 01:34:24;;;;;;;;;18.00;18.00;;;;;19.67;62.55;101796.81;5112908;27;45640;-68
2023/10/09 01:36:59;;;;;;;;;17.00;16.00;;;;;19.64;62.60;101797.19;5106888;27;47441;-68
2023/10/09 01:39:30;;;;;;;;;15.67;12.33;;;;;19.64;62.76;101786.38;5099737;27;45423;-69
2023/10/09 01:41:59;;;;;;;;;16.33;14.33;;;;;19.63;62.65;101794.66;5099917;27;45296;-68
2023/10/09 01:44:27;;;;;;;;;14.67;13.67;;;;;19.38;62.62;101742.66;5099670;27;45418;-69
2023/10/09 01:46:56;;;;;;;;;16.00;13.67;;;;;19.55;62.75;101776.66;5098852;27;46897;-68
2023/10/09 01:49:29;;;;;;;;;11.67;11.00;;;;;19.56;62.69;101778.31;5107430;27;45556;-69
2023/10/09 01:52:09;;;;;;;;;16.67;13.33;;;;;19.57;62.74;101787.25;5110957;27;45615;-68
2023/10/09 01:54:38;;;;;;;;;11.67;11.67;;;;;19.25;62.71;101739.72;5100724;27;45500;-69
2023/10/09 01:57:13;;;;;;;;;12.33;10.00;;;;;19.51;62.46;101786.09;5112652;27;46989;-68
2023/10/09 01:59:49;;;;;;;;;13.67;10.33;;;;;19.42;62.34;101765.56;5102096;27;45308;-69
2023/10/09 02:02:25;;;;;;;;;12.33;11.00;;;;;19.40;62.46;101775.69;5112443;27;45342;-68
2023/10/09 02:04:52;;;;;;;;;14.33;13.33;;;;;19.45;62.62;101781.41;5084629;27;45344;-69
2023/10/09 02:07:27;;;;;;;;;11.67;10.67;;;;;19.10;62.70;101724.28;5084723;27;46211;-69
2023/10/09 02:09:54;;;;;;;;;12.00;9.00;;;;;19.41;62.71;101769.25;5102367;27;45777;-69
2023/10/09 02:12:21;;;;;;;;;13.00;11.33;;;;;19.39;62.75;101765.91;5103532;27;45429;-69
2023/10/09 02:14:47;;;;;;;;;11.00;8.67;;;;;19.39;62.53;101771.31;5114943;27;45604;-69
2023/10/09 02:17:17;;;;;;;;;13.33;9.67;;;;;19.21;62.47;101738.38;5099106;27;45775;-68
2023/10/09 02:19:48;;;;;;;;;13.00;11.00;;;;;19.37;62.91;101776.03;5101226;27;45656;-68
2023/10/09 02:22:14;;;;;;;;;11.67;11.67;;;;;19.30;62.73;101767.81;5112821;27;45359;-69
2023/10/09 02:24:51;;;;;;;;;12.33;10.00;;;;;19.26;62.65;101768.34;5106840;27;45483;-68
2023/10/09 02:27:39;;;;;;;;;13.00;10.33;;;;;19.18;62.71;101749.50;5113005;27;46576;-68
2023/10/09 02:30:15;;;;;;;;;13.67;11.67;;;;;19.30;62.70;101764.28;5118051;27;45374;-68
2023/10/09 02:32:42;;;;;;;;;12.33;10.33;;;;;19.23;62.69;101766.00;5101010;27;45323;-68
2023/10/09 02:35:21;;;;;;;;;12.33;10.67;;;;;19.27;62.64;101770.03;5103357;27;45449;-69
2023/10/09 02:37:46;;;;;;;;;11.67;10.00;;;;;19.23;62.75;101757.94;5099884;27;47716;-68
2023/10/09 02:40:15;;;;;;;;;11.33;10.33;;;;;19.24;62.95;101762.31;5106142;27;45500;-68
2023/10/09 02:42:43;;;;;;;;;8.67;8.00;;;;;19.23;62.54;101766.00;5106946;27;45419;-69
2023/10/09 02:45:10;;;;;;;;;11.00;8.67;;;;;19.18;62.79;101754.91;5095502;27;45324;-69
2023/10/09 02:47:39;;;;;;;;;11.67;9.67;;;;;19.07;62.89;101745.34;5106158;27;45786;-71
2023/10/09 02:50:19;;;;;;;;;8.00;8.00;;;;;19.15;62.35;101754.22;5109685;27;45443;-68
2023/10/09 02:52:47;;;;;;;;;9.00;7.00;;;;;19.04;62.81;101741.16;5109912;27;45241;-69
2023/10/09 02:55:23;;;;;;;;;11.33;11.33;;;;;18.87;62.63;101717.16;5105456;27;45378;-69
2023/10/09 02:57:52;;;;;;;;;9.67;7.67;;;;;19.02;62.73;101732.41;5089788;27;47022;-69
2023/10/09 03:00:28;;;;;;;;;8.67;7.00;;;;;18.53;62.29;101664.38;5091907;27;45430;-68
2023/10/09 03:02:54;;;;;;;;;8.67;7.33;;;;;18.99;62.71;101738.13;5115255;27;45461;-69
2023/10/09 03:05:20;;;;;;;;;10.33;8.00;;;;;19.08;62.62;101755.97;5098119;27;45500;-69
2023/10/09 03:07:46;;;;;;;;;8.50;8.25;;;;;18.89;62.61;101728.59;5087754;27;47521;-68
2023/10/09 03:10:11;;;;;;;;;10.75;7.75;;;;;19.05;62.73;101763.56;5105877;27;45629;-68
2023/10/09 03:12:39;;;;;;;;;14.00;12.33;;;;;18.97;62.66;101759.03;5105666;27;45418;-69
2023/10/09 03:15:08;;;;;;;;;9.75;7.75;;;;;18.69;63.01;101720.06;5114392;27;45350;-68
2023/10/09 03:17:36;;;;;;;;;11.33;9.33;;;;;18.70;62.48;101727.97;5112394;27;46700;-68
2023/10/09 03:20:12;;;;;;;;;7.00;7.00;;;;;18.96;62.88;101776.22;5106834;27;45573;-68
2023/10/09 03:22:38;;;;;;;;;8.00;7.00;;;;;18.95;62.83;101779.91;5106031;27;45489;-68
2023/10/09 03:25:11;;;;;;;;;7.75;7.75;;;;;18.89;63.08;101779.78;5105510;27;46074;-69
2023/10/09 03:27:38;;;;;;;;;12.67;10.67;;;;;18.90;63.62;101776.06;5105491;27;47448;-67
2023/10/09 03:30:05;;;;;;;;;13.67;13.67;;;;;18.32;63.65;101683.78;5115570;27;45503;-68
2023/10/09 03:32:30;;;;;;;;;13.00;12.67;;;;;18.85;64.42;101765.81;5111978;27;45575;-70
2023/10/09 03:34:56;;;;;;;;;13.67;12.33;;;;;18.86;64.05;101770.19;5105633;27;47010;-70
2023/10/09 03:37:22;;;;;;;;;12.67;10.67;;;;;18.82;63.80;101758.06;5109983;27;45669;-69
2023/10/09 03:39:48;;;;;;;;;11.33;10.33;;;;;18.91;63.69;101772.38;5090774;27;45506;-69
2023/10/09 03:42:20;;;;;;;;;11.00;10.00;;;;;18.90;63.71;101776.91;5100928;27;45389;-68
2023/10/09 03:44:52;;;;;;;;;12.67;11.67;;;;;18.90;63.82;101782.31;5109751;27;45358;-69
2023/10/09 03:47:22;;;;;;;;;10.33;9.33;;;;;18.80;63.36;101765.47;5108057;27;45509;-69
2023/10/09 03:49:50;;;;;;;;;10.67;10.67;;;;;18.88;63.15;101784.34;5101839;27;45466;-69
2023/10/09 03:52:17;;;;;;;;;10.67;9.33;;;;;18.71;63.37;101756.59;5108782;27;45608;-69
2023/10/09 03:54:46;;;;;;;;;10.67;8.00;;;;;18.83;63.49;101786.72;5102132;27;45434;-68
2023/10/09 03:57:13;;;;;;;;;14.67;9.33;;;;;18.81;63.32;101777.94;5097390;27;46891;-68
2023/10/09 03:59:40;;;;;;;;;11.67;8.33;;;;;18.82;63.37;101779.63;5087795;27;45282;-68
2023/10/09 04:02:05;;;;;;;;;12.67;10.33;;;;;18.82;63.31;101779.63;5111586;27;45421;-68
2023/10/09 04:04:33;;;;;;;;;11.67;10.67;;;;;18.82;63.29;101780.47;5113408;27;45241;-69
2023/10/09 04:06:58;;;;;;;;;9.00;9.00;;;;;18.62;63.53;101756.75;5112500;27;45889;-69
2023/10/09 04:14:47;;;;;;;;;12.00;9.67;;;;;18.73;63.99;101777.97;5109368;27;45456;-68
2023/10/09 04:17:34;;;;;;;;;10.33;10.33;;;;;18.79;64.29;101788.88;5090853;27;47730;-69
2023/10/09 04:22:50;;;;;;;;;11.67;9.67;;;;;18.67;64.12;101759.81;5108471;27;45820;-67
2023/10/09 04:25:29;;;;;;;;;11.33;11.33;;;;;18.80;64.24;101782.47;5116607;27;45391;-68
2023/10/09 04:28:09;;;;;;;;;12.67;12.00;;;;;18.82;64.28;101779.63;5100875;27;46294;-69
2023/10/09 04:30:40;;;;;;;;;13.33;11.00;;;;;18.82;64.06;101780.47;5103787;27;45312;-67
2023/10/09 04:36:12;;;;;;;;;11.33;10.33;;;;;18.84;64.06;101783.84;5102640;27;45538;-68
2023/10/09 04:38:37;;;;;;;;;11.33;9.00;;;;;18.84;63.89;101788.41;5099622;27;45461;-69
2023/10/09 04:41:05;;;;;;;;;10.00;10.00;;;;;18.82;64.29;101776.91;5100183;27;45462;-69
2023/10/09 04:43:32;;;;;;;;;8.00;6.00;;;;;18.83;63.98;101778.63;5116102;27;46641;-68
2023/10/09 04:48:32;;;;;;;;;7.33;5.67;;;;;18.82;63.97;101779.63;5101431;27;46420;-68
2023/10/09 04:54:26;;;;;;;;;9.00;7.33;;;;;18.82;63.70;101776.91;5090873;27;45443;-69
2023/10/09 04:56:55;;;;;;;;;8.33;7.33;;;;;18.80;63.62;101777.09;5119539;27;45659;-69
2023/10/09 04:59:25;;;;;;;;;10.67;10.33;;;;;18.81;63.53;101778.78;5104463;27;46299;-68
2023/10/09 05:01:59;;;;;;;;;11.33;10.00;;;;;18.80;63.51;101770.88;5109893;27;45450;-68
2023/10/09 05:04:39;;;;;;;;;16.00;10.33;;;;;18.80;63.71;101776.25;5110566;27;45305;-69
2023/10/09 05:07:22;;;;;;;;;13.00;10.00;;;;;18.77;63.53;101772.06;5099607;27;45479;-69
2023/10/09 05:09:55;;;;;;;;;8.33;6.67;;;;;18.79;63.11;101780.81;5099092;27;47333;-69
2023/10/09 05:12:26;;;;;;;;;8.67;6.67;;;;;18.79;63.52;101788.03;5099837;27;45392;-68
2023/10/09 05:15:08;;;;;;;;;6.33;6.33;;;;;18.62;63.16;101767.50;5099654;27;45307;-68
2023/10/09 05:17:35;;;;;;;;;6.33;6.33;;;;;18.71;63.50;101796.16;5088647;27;45590;-69
2023/10/09 05:22:57;;;;;;;;;14.00;10.67;;;;;18.75;63.52;101803.72;5101682;27;45434;-68
2023/10/09 05:25:51;;;;;;;;;9.33;9.00;;;;;18.78;63.66;101797.16;5107321;27;45303;-68
2023/10/09 05:31:44;;;;;;;;;9.33;9.00;;;;;18.46;63.96;101742.31;5113237;27;45500;-70
2023/10/09 05:33:45;;;;;;;;;7.00;4.67;;;;;18.79;63.57;101802.34;5104777;27;45544;-69
2023/10/09 05:39:18;;;;;;;;;10.33;10.33;;;;;18.74;63.69;101793.97;5099229;27;45247;-69
2023/10/09 05:41:47;;;;;;;;;3.00;3.00;;;;;18.63;63.70;101775.47;5099381;27;46684;-68
2023/10/09 05:49:54;;;;;;;;;10.00;5.67;;;;;18.51;63.92;101785.72;5115952;27;45219;-68
2023/10/09 06:03:25;;;;;;;;;7.00;7.00;;;;;18.46;63.88;101774.63;5117937;27;45809;-69
2023/10/09 06:14:12;;;;;;;;;9.00;7.33;;;;;18.70;63.84;101810.66;5098635;27;45713;-70
2023/10/09 06:16:42;;;;;;;;;12.00;11.33;;;;;18.72;63.93;101814.84;5103066;27;45502;-68
2023/10/09 06:19:26;;;;;;;;;12.33;10.33;;;;;18.70;63.88;101808.78;5098986;27;45460;-69
2023/10/09 06:24:23;;;;;;;;;14.00;11.33;;;;;18.78;63.71;101816.00;5101250;27;46393;-71
2023/10/09 06:29:36;;;;;;;;;12.00;10.00;;;;;18.76;63.20;101813.47;5100379;27;45569;-69
2023/10/09 06:43:17;;;;;;;;;13.00;12.00;;;;;18.74;63.31;101787.72;5105391;27;45485;-69
2023/10/09 06:45:44;;;;;;;;;13.33;11.33;;;;;18.98;63.31;101828.06;5112852;27;46657;-68
2023/10/09 06:51:12;;;;;;;;;10.67;10.67;;;;;19.09;62.98;101833.13;5104555;27;45398;-69
2023/10/09 06:54:25;;;;;;;;;11.67;8.67;;;;;19.10;62.85;101820.47;5103001;27;45533;-69
2023/10/09 06:59:03;;;;;;;;;15.00;11.00;;;;;19.12;61.97;101818.44;5101899;27;45218;-69
2023/10/09 07:04:19;;;;;;;;;7.00;7.00;;;;;19.35;62.07;101832.00;5097737;27;45505;-69
2023/10/09 07:06:51;;;;;;;;;16.33;11.33;;;;;19.39;61.81;101830.63;5110098;27;46947;-69
2023/10/09 07:09:19;;;;;;;;;13.75;8.50;;;;;19.47;61.79;101824.38;5084457;27;45529;-68
2023/10/09 07:16:57;;;;;;;;;14.67;13.67;;;;;20.30;60.35;101827.22;5097914;27;46496;-71
2023/10/09 07:19:57;;;;;;;;;16.67;14.33;;;;;20.62;59.35;101812.59;5100251;27;45476;-69
2023/10/09 07:24:58;;;;;;;;;12.00;11.67;;;;;21.48;57.39;101828.22;5106442;27;45481;-69
2023/10/09 07:27:51;;;;;;;;;15.00;13.00;;;;;21.93;56.27;101834.34;5106515;27;47619;-69
2023/10/09 07:33:16;;;;;;;;;22.33;18.33;;;;;22.65;54.52;101836.94;5098507;27;45320;-70
2023/10/09 07:35:47;;;;;;;;;21.67;16.33;;;;;23.00;53.67;101832.38;5109386;27;45253;-70
2023/10/09 07:38:35;;;;;;;;;20.33;19.00;;;;;23.38;52.63;101834.66;5108471;27;46293;-69
2023/10/09 07:43:45;;;;;;;;;27.00;24.33;;;;;24.03;51.20;101840.53;5108985;27;45520;-70
2023/10/09 07:46:51;;;;;;;;;19.67;18.33;;;;;24.35;50.55;101847.94;5106821;27;45453;-69
2023/10/09 07:49:24;;;;;;;;;24.33;21.33;;;;;24.55;49.17;101846.06;5108066;27;46348;-70
2023/10/09 07:51:52;;;;;;;;;22.00;20.33;;;;;24.70;48.69;101851.31;5097212;27;45328;-69
2023/10/09 07:54:32;;;;;;;;;19.67;16.00;;;;;24.77;48.33;101848.56;5096839;27;45485;-69
2023/10/09 07:57:08;;;;;;;;;15.67;15.33;;;;;24.90;48.10;101851.28;5097695;27;45568;-70
2023/10/09 07:59:40;;;;;;;;;21.00;19.00;;;;;25.06;47.48;101834.53;5103675;27;47803;-68
2023/10/09 08:02:13;;;;;;;;;19.00;18.00;;;;;25.33;46.76;101850.78;5098294;27;45508;-70
2023/10/09 08:04:47;;;;;;;;;20.33;17.33;;;;;25.55;46.71;101854.03;5092313;27;45616;-70
2023/10/09 08:07:25;;;;;;;;;19.33;18.00;;;;;25.63;46.05;101830.13;5100099;27;45717;-69
2023/10/09 08:15:52;;;;;;;;;16.33;14.00;;;;;26.43;44.64;101863.22;5103375;27;46153;-70
2023/10/09 08:18:03;;;;;;;;;17.67;13.67;;;;;26.58;43.62;101843.78;5093422;27;45299;-71
2023/10/09 08:20:50;;;;;;;;;15.67;14.67;;;;;26.78;43.49;101862.69;5092085;27;45868;-70
2023/10/09 08:23:28;;;;;;;;;19.33;17.00;;;;;26.89;43.81;101862.81;5095634;27;45472;-72
2023/10/09 08:26:12;;;;;;;;;20.67;18.00;;;;;27.03;43.12;101857.22;5100585;27;45433;-68
2023/10/09 08:28:42;;;;;;;;;16.00;14.00;;;;;27.27;42.49;101864.53;5099971;27;45599;-70
2023/10/09 08:34:03;;;;;;;;;11.67;11.67;;;;;27.67;41.64;101861.34;5104500;27;45548;-69
2023/10/09 08:36:36;;;;;;;;;15.00;15.00;;;;;27.91;40.69;101868.56;5085785;27;45540;-70
2023/10/09 08:41:49;;;;;;;;;20.67;17.00;;;;;28.32;39.79;101864.22;5112922;27;45370;-68
2023/10/09 08:44:22;;;;;;;;;15.00;11.33;;;;;28.44;38.82;101863.19;5087056;27;45464;-69
2023/10/09 08:46:50;;;;;;;;;16.00;13.00;;;;;28.49;39.59;101867.94;5113075;27;45564;-68
2023/10/09 08:49:16;;;;;;;;;14.33;13.33;;;;;28.26;38.76;101884.31;5107813;27;45326;-68
2023/10/09 08:51:42;;;;;;;;;20.33;17.00;;;;;27.99;39.92;101868.25;5105524;27;45329;-69
2023/10/09 08:54:11;;;;;;;;;15.67;13.33;;;;;27.94;39.92;101878.22;5110697;27;45288;-71
2023/10/09 08:56:39;;;;;;;;;20.00;16.33;;;;;27.84;39.15;101879.63;5111331;27;45238;-71
2023/10/09 08:59:05;;;;;;;;;15.67;14.67;;;;;27.73;40.00;101880.38;5108136;27;45548;-68
2023/10/09 09:01:32;;;;;;;;;15.67;12.00;;;;;27.74;39.89;101881.22;5099623;27;46477;-69
2023/10/09 09:03:59;;;;;;;;;14.00;13.00;;;;;27.74;39.96;101878.47;5103810;27;45321;-70
2023/10/09 09:06:25;;;;;;;;;17.33;15.67;;;;;27.78;40.12;101880.50;5099555;27;45419;-75
2023/10/09 09:08:59;;;;;;;;;14.67;13.67;;;;;27.81;39.38;101887.41;5081986;27;45426;-69
2023/10/09 09:11:25;;;;;;;;;14.67;13.00;;;;;27.80;39.89;101874.81;5113469;27;45783;-69
2023/10/09 09:13:53;;;;;;;;;14.33;11.00;;;;;27.61;39.20;101833.00;5101521;27;45414;-68
2023/10/09 09:16:22;;;;;;;;;16.00;13.00;;;;;28.09;38.67;101884.94;5115548;27;45446;-69
2023/10/09 09:19:00;;;;;;;;;15.00;12.67;;;;;28.33;38.45;101879.56;5110391;27;45425;-70
2023/10/09 09:21:27;;;;;;;;;12.00;10.67;;;;;28.65;37.86;101871.88;5110710;27;46412;-69
2023/10/09 09:23:55;;;;;;;;;14.67;13.67;;;;;28.98;37.13;101877.63;5109502;27;45346;-70
2023/10/09 09:26:37;;;;;;;;;14.33;12.33;;;;;29.35;37.33;101883.63;5093431;27;45284;-70
2023/10/09 09:29:05;;;;;;;;;17.00;15.00;;;;;29.50;35.92;101843.97;5108375;27;45574;-68
2023/10/09 09:31:37;;;;;;;;;12.33;11.00;;;;;29.87;35.39;101878.16;5110541;27;47449;-69
2023/10/09 09:34:12;;;;;;;;;17.33;15.33;;;;;29.94;34.87;101870.59;5101064;27;45269;-68
2023/10/09 09:36:53;;;;;;;;;14.67;14.67;;;;;29.68;34.80;101835.56;5107310;27;45372;-70
2023/10/09 09:39:28;;;;;;;;;12.00;11.00;;;;;29.91;34.85;101882.06;5100453;27;45506;-69
2023/10/09 09:42:07;;;;;;;;;13.00;10.67;;;;;29.69;34.61;101883.81;5113514;27;46931;-69
2023/10/09 09:44:43;;;;;;;;;15.00;12.33;;;;;29.49;34.78;101876.03;5106857;27;45742;-68
2023/10/09 09:47:12;;;;;;;;;11.67;9.00;;;;;29.23;34.51;101874.59;5111090;27;45532;-69
2023/10/09 09:49:41;;;;;;;;;10.00;9.67;;;;;28.77;34.76;101843.44;5112647;27;45753;-68
2023/10/09 09:52:09;;;;;;;;;9.00;8.00;;;;;28.74;34.95;101874.00;5090082;27;48682;-71
2023/10/09 09:54:37;;;;;;;;;11.00;9.67;;;;;28.52;34.66;101869.34;5102249;27;45667;-69
2023/10/09 09:57:08;;;;;;;;;13.67;12.00;;;;;28.24;34.34;101876.31;5100884;27;45435;-69
2023/10/09 09:59:40;;;;;;;;;12.67;12.67;;;;;27.92;35.42;101878.44;5109237;27;45480;-71
2023/10/09 10:02:07;;;;;;;;;13.00;10.67;;;;;27.66;36.35;101882.38;5105316;27;46629;-69
2023/10/09 10:04:36;;;;;;;;;12.67;11.67;;;;;27.27;36.54;101870.00;5109056;27;45734;-69
2023/10/09 10:07:09;;;;;;;;;11.75;10.75;;;;;26.98;36.87;101880.53;5099268;27;45545;-69
2023/10/09 10:09:40;;;;;;;;;14.00;12.33;;;;;26.46;37.44;101829.22;5109980;27;45615;-70
2023/10/09 10:12:14;;;;;;;;;12.00;11.33;;;;;26.45;38.35;101865.72;5100065;27;46476;-72
2023/10/09 10:14:59;;;;;;;;;10.33;10.33;;;;;26.27;37.72;101866.47;5079251;27;46484;-69
2023/10/09 10:17:29;;;;;;;;;9.50;7.50;;;;;26.11;37.63;101886.06;5078263;27;45619;-69
2023/10/09 10:20:40;;;;;;;;;10.67;10.00;;;;;25.98;38.32;101871.44;5115988;27;45507;-70
2023/10/09 10:22:48;;;;;;;;;10.33;8.67;;;;;25.87;37.83;101863.16;5102764;27;46010;-69
2023/10/09 10:25:41;;;;;;;;;7.25;7.25;;;;;25.80;36.03;101873.22;5088661;27;45605;-69
2023/10/09 10:28:38;;;;;;;;;5.00;5.00;;;;;25.59;33.71;101867.00;5100096;27;45348;-70
2023/10/09 10:31:07;;;;;;;;;4.75;4.75;;;;;25.50;33.15;101873.75;5088741;27;45488;-69
2023/10/09 10:33:54;;;;;;;;;7.50;5.75;;;;;25.38;33.43;101873.56;5111103;27;45811;-70
2023/10/09 10:36:23;;;;;;;;;6.00;3.25;;;;;25.28;33.88;101869.66;5090035;27;46122;-69
2023/10/09 10:39:04;;;;;;;;;5.50;5.50;;;;;25.16;33.52;101872.19;5098139;27;45265;-70
2023/10/09 10:41:35;;;;;;;;;4.00;4.00;;;;;24.74;33.79;101824.50;5111059;27;45632;-71
2023/10/09 10:44:33;;;;;;;;;18.67;18.67;;;;;25.01;34.37;101874.28;5109014;27;46124;-70
2023/10/09 10:46:56;;;;;;;;;7.00;6.00;;;;;24.93;33.48;101860.91;5112482;27;45504;-70
2023/10/09 10:49:23;;;;;;;;;7.00;5.50;;;;;24.98;34.12;101872.81;5105970;27;45337;-70
2023/10/09 10:51:53;;;;;;;;;9.67;9.33;;;;;24.99;35.01;101860.03;5098789;27;45431;-68
2023/10/09 10:56:59;;;;;;;;;6.50;6.50;;;;;25.10;35.29;101857.53;5109226;27;45697;-69
2023/10/09 10:59:33;;;;;;;;;5.25;5.25;;;;;25.17;34.79;101858.34;5101784;27;45261;-69
2023/10/09 11:12:39;;;;;;;;;11.00;11.00;;;;;25.59;35.63;101850.66;5106088;27;45505;-69
2023/10/09 11:15:37;;;;;;;;;8.25;5.75;;;;;25.34;35.61;101817.06;5098549;27;46543;-69
2023/10/09 11:18:19;;;;;;;;;7.25;5.75;;;;;25.40;35.63;101818.91;5113652;27;45458;-70
2023/10/09 11:28:57;;;;;;;;;7.00;7.00;;;;;25.64;36.47;101844.59;5101741;27;45439;-69
2023/10/09 11:31:23;;;;;;;;;5.75;5.75;;;;;25.65;35.72;101841.66;5107342;27;45442;-69
2023/10/09 11:33:51;;;;;;;;;7.50;6.50;;;;;25.73;35.68;101846.03;5110624;27;45441;-69
2023/10/09 11:36:17;;;;;;;;;7.00;7.00;;;;;25.80;36.00;101851.44;5108326;27;45641;-70
2023/10/09 11:38:45;;;;;;;;;5.25;5.00;;;;;25.73;34.51;101841.41;5105014;27;45456;-70
2023/10/09 11:41:24;;;;;;;;;8.00;5.25;;;;;25.81;33.43;101850.38;5097146;27;45378;-70
2023/10/09 11:43:57;;;;;;;;;7.00;6.00;;;;;25.84;34.36;101841.78;5102210;27;45498;-69
2023/10/09 11:49:44;;;;;;;;;7.00;5.75;;;;;25.87;34.26;101825.00;5032940;28;45454;-69
2023/10/09 11:54:35;;;;;;;;;7.00;4.50;;;;;25.97;33.01;101831.63;5107019;27;46522;-70
2023/10/09 11:57:01;;;;;;;;;8.75;6.00;;;;;26.06;32.99;101830.31;5102686;27;45440;-69
2023/10/09 11:59:39;;;;;;;;;5.25;4.00;;;;;26.06;33.51;101810.41;5107585;27;45507;-69
2023/10/09 12:02:05;;;;;;;;;8.00;6.00;;;;;26.19;34.03;101817.63;5109644;27;45421;-70
2023/10/09 12:04:30;;;;;;;;;5.75;5.50;;;;;26.17;33.54;101801.50;5107839;27;45219;-68
2023/10/09 12:07:08;;;;;;;;;11.25;7.00;;;;;26.29;33.35;101810.66;5105486;27;46022;-69
2023/10/09 12:09:34;;;;;;;;;13.33;8.00;;;;;26.37;33.06;101823.19;5103525;27;45540;-69
2023/10/09 12:12:02;;;;;;;;;7.00;7.00;;;;;26.23;33.11;101786.16;5100385;27;45332;-70
2023/10/09 12:14:33;;;;;;;;;5.50;5.50;;;;;26.40;32.83;101811.84;5081264;27;45541;-81
2023/10/09 12:17:08;;;;;;;;;10.00;6.75;;;;;26.40;33.47;101797.38;5090459;27;46900;-68
2023/10/09 12:19:42;;;;;;;;;8.00;7.67;;;;;26.52;33.07;101809.22;5103930;27;45371;-69
2023/10/09 12:22:16;;;;;;;;;6.00;6.00;;;;;26.51;32.86;101804.81;5107340;27;45382;-68
2023/10/09 12:24:43;;;;;;;;;8.00;7.00;;;;;26.20;32.47;101749.25;5110610;27;45576;-69
2023/10/09 12:27:11;;;;;;;;;7.00;6.00;;;;;26.47;31.99;101796.28;5115846;27;46987;-70
2023/10/09 12:29:36;;;;;;;;;5.33;5.33;;;;;26.12;31.83;101751.44;5108257;27;45498;-69
2023/10/09 12:32:03;;;;;;;;;7.00;7.00;;;;;26.41;31.50;101788.97;5112594;27;45387;-69
2023/10/09 12:34:30;;;;;;;;;5.67;4.67;;;;;26.43;31.07;101783.28;5112331;27;45922;-70
2023/10/09 12:37:03;;;;;;;;;4.25;4.25;;;;;26.36;31.05;101776.00;5087746;27;48461;-76
2023/10/09 12:39:39;;;;;;;;;9.67;7.00;;;;;26.40;29.54;101781.84;5105504;27;45526;-69
2023/10/09 12:42:08;;;;;;;;;5.25;5.25;;;;;26.36;30.15;101780.63;5111205;27;45395;-69
2023/10/09 12:44:38;;;;;;;;;4.25;4.25;;;;;26.10;29.98;101743.50;5092985;27;45680;-71
2023/10/09 12:47:11;;;;;;;;;6.00;5.50;;;;;26.28;29.08;101773.53;5110414;27;46471;-69
2023/10/09 12:49:39;;;;;;;;;7.00;5.67;;;;;26.12;29.25;101741.38;5102931;27;45458;-68
2023/10/09 12:52:04;;;;;;;;;7.00;7.00;;;;;26.19;29.36;101754.94;5099567;27;45531;-68
2023/10/09 12:54:31;;;;;;;;;6.00;5.00;;;;;26.20;29.32;101756.63;5107560;27;45273;-69
2023/10/09 12:56:57;;;;;;;;;5.67;5.67;;;;;26.15;28.80;101757.28;5099330;27;46348;-69
2023/10/09 12:59:24;;;;;;;;;5.33;5.00;;;;;25.87;28.57;101716.84;5111704;27;45352;-69
2023/10/09 13:01:52;;;;;;;;;7.00;6.00;;;;;26.06;28.81;101762.19;5109068;27;45402;-70
2023/10/09 13:04:22;;;;;;;;;9.75;7.25;;;;;26.04;28.49;101749.84;5112471;27;46767;-70
2023/10/09 13:06:51;;;;;;;;;7.25;5.75;;;;;25.99;27.91;101746.94;5109037;27;47814;-70
2023/10/09 13:09:34;;;;;;;;;5.00;3.25;;;;;25.65;28.43;101685.56;5103716;27;45326;-69
2023/10/09 13:12:00;;;;;;;;;7.00;7.00;;;;;26.01;28.68;101751.09;5102880;27;45555;-70
2023/10/09 13:14:26;;;;;;;;;7.67;6.67;;;;;25.69;28.44;101698.56;5106059;27;45606;-69
2023/10/09 13:16:52;;;;;;;;;8.00;5.75;;;;;25.77;28.90;101703.72;5107708;27;45806;-70
2023/10/09 13:19:18;;;;;;;;;4.67;4.67;;;;;25.71;29.21;101679.25;5103679;27;45407;-71
2023/10/09 13:21:44;;;;;;;;;4.75;4.75;;;;;26.05;28.88;101741.44;5111040;27;45265;-68
2023/10/09 13:24:13;;;;;;;;;6.33;6.33;;;;;26.04;29.16;101733.50;5084678;27;45577;-70
2023/10/09 13:26:40;;;;;;;;;7.67;6.00;;;;;26.12;29.17;101741.38;5118810;27;47559;-69
2023/10/09 13:29:11;;;;;;;;;5.00;5.00;;;;;26.15;28.98;101740.94;5099941;27;45397;-70
2023/10/09 13:31:37;;;;;;;;;6.67;5.33;;;;;26.19;28.17;101738.59;5099033;27;45271;-69
2023/10/09 13:34:06;;;;;;;;;10.33;7.00;;;;;26.24;29.11;101738.78;5109915;27;45347;-68
2023/10/09 13:36:33;;;;;;;;;7.33;6.67;;;;;26.24;28.89;101736.88;5118552;27;45622;-68
2023/10/09 13:39:21;;;;;;;;;5.25;3.50;;;;;26.28;29.11;101740.00;5100171;27;45635;-69
2023/10/09 13:41:48;;;;;;;;;6.00;4.75;;;;;26.19;29.48;101720.34;5098975;27;45473;-71
2023/10/09 13:44:13;;;;;;;;;6.50;5.00;;;;;26.31;28.66;101734.91;5099733;27;45507;-68
2023/10/09 13:46:42;;;;;;;;;4.00;4.00;;;;;26.10;29.12;101691.72;5106819;27;46887;-70